sensor_id;sensor_type;location;lat;lon;timestamp;P1;durP1;ratioP1;P2;durP2;ratioP2
17345;SDS011;8790;53.590;10.002;2022-11-15T00:00:29;30.40;;;19.50;;
17345;SDS011;8790;53.590;10.002;2022-11-15T00:03:20;28.23;;;19.17;;
17345;SDS011;8790;53.590;10.002;2022-11-15T00:06:14;27.57;;;18.50;;
17345;SDS011;8790;53.590;10.002;2022-11-15T00:09:04;30.47;;;19.50;;
17345;SDS011;8790;53.590;10.002;2022-11-15T00:11:55;28.10;;;19.10;;
17345;SDS011;8790;53.590;10.002;2022-11-15T00:14:45;31.03;;;19.67;;
17345;SDS011;8790;53.590;10.002;2022-11-15T00:17:36;30.20;;;19.30;;
17345;SDS011;8790;53.590;10.002;2022-11-15T00:20:26;28.13;;;18.70;;
17345;SDS011;8790;53.590;10.002;2022-11-15T00:23:18;31.33;;;19.37;;
17345;SDS011;8790;53.590;10.002;2022-11-15T00:26:10;28.87;;;18.40;;
17345;SDS011;8790;53.590;10.002;2022-11-15T00:29:01;28.23;;;18.80;;
17345;SDS011;8790;53.590;10.002;2022-11-15T00:31:52;27.43;;;18.20;;
17345;SDS011;8790;53.590;10.002;2022-11-15T00:34:42;29.67;;;18.63;;
17345;SDS011;8790;53.590;10.002;2022-11-15T00:37:32;28.77;;;17.70;;
17345;SDS011;8790;53.590;10.002;2022-11-15T00:40:24;28.20;;;18.73;;
17345;SDS011;8790;53.590;10.002;2022-11-15T00:43:15;28.03;;;18.67;;
17345;SDS011;8790;53.590;10.002;2022-11-15T00:46:05;27.60;;;18.30;;
17345;SDS011;8790;53.590;10.002;2022-11-15T00:48:57;27.23;;;18.20;;
17345;SDS011;8790;53.590;10.002;2022-11-15T00:51:47;27.67;;;18.10;;
17345;SDS011;8790;53.590;10.002;2022-11-15T00:54:38;27.10;;;18.17;;
17345;SDS011;8790;53.590;10.002;2022-11-15T00:57:30;26.37;;;17.90;;
17345;SDS011;8790;53.590;10.002;2022-11-15T01:00:20;26.50;;;18.27;;
17345;SDS011;8790;53.590;10.002;2022-11-15T01:03:10;26.83;;;17.43;;
17345;SDS011;8790;53.590;10.002;2022-11-15T01:06:01;29.10;;;18.77;;
17345;SDS011;8790;53.590;10.002;2022-11-15T01:08:52;27.73;;;18.20;;
17345;SDS011;8790;53.590;10.002;2022-11-15T01:11:43;27.13;;;17.90;;
17345;SDS011;8790;53.590;10.002;2022-11-15T01:14:34;28.13;;;18.30;;
17345;SDS011;8790;53.590;10.002;2022-11-15T01:17:25;28.20;;;18.70;;
17345;SDS011;8790;53.590;10.002;2022-11-15T01:20:16;27.70;;;17.90;;
17345;SDS011;8790;53.590;10.002;2022-11-15T01:23:07;28.37;;;18.73;;
17345;SDS011;8790;53.590;10.002;2022-11-15T01:25:58;28.83;;;18.23;;
17345;SDS011;8790;53.590;10.002;2022-11-15T01:28:49;27.33;;;18.10;;
17345;SDS011;8790;53.590;10.002;2022-11-15T01:31:41;27.00;;;18.47;;
17345;SDS011;8790;53.590;10.002;2022-11-15T01:34:31;27.10;;;18.07;;
17345;SDS011;8790;53.590;10.002;2022-11-15T01:37:22;28.03;;;18.57;;
17345;SDS011;8790;53.590;10.002;2022-11-15T01:40:12;26.80;;;17.83;;
17345;SDS011;8790;53.590;10.002;2022-11-15T01:46:13;28.87;;;18.13;;
17345;SDS011;8790;53.590;10.002;2022-11-15T01:49:14;24.97;;;17.80;;
17345;SDS011;8790;53.590;10.002;2022-11-15T01:52:07;26.77;;;17.60;;
17345;SDS011;8790;53.590;10.002;2022-11-15T01:55:02;26.20;;;17.77;;
17345;SDS011;8790;53.590;10.002;2022-11-15T01:57:57;29.40;;;17.87;;
17345;SDS011;8790;53.590;10.002;2022-11-15T02:00:50;25.70;;;17.97;;
17345;SDS011;8790;53.590;10.002;2022-11-15T02:03:44;27.87;;;18.10;;
17345;SDS011;8790;53.590;10.002;2022-11-15T02:06:40;26.57;;;18.23;;
17345;SDS011;8790;53.590;10.002;2022-11-15T02:09:32;30.40;;;18.40;;
17345;SDS011;8790;53.590;10.002;2022-11-15T02:12:22;26.13;;;18.07;;
17345;SDS011;8790;53.590;10.002;2022-11-15T02:15:13;27.87;;;18.23;;
17345;SDS011;8790;53.590;10.002;2022-11-15T02:18:07;26.33;;;17.90;;
17345;SDS011;8790;53.590;10.002;2022-11-15T02:21:14;28.40;;;17.77;;
17345;SDS011;8790;53.590;10.002;2022-11-15T02:24:33;28.50;;;17.10;;
17345;SDS011;8790;53.590;10.002;2022-11-15T02:27:47;29.53;;;18.17;;
17345;SDS011;8790;53.590;10.002;2022-11-15T02:30:51;24.97;;;16.80;;
17345;SDS011;8790;53.590;10.002;2022-11-15T02:33:46;23.77;;;17.30;;
17345;SDS011;8790;53.590;10.002;2022-11-15T02:36:44;24.77;;;16.77;;
17345;SDS011;8790;53.590;10.002;2022-11-15T02:39:40;28.13;;;17.50;;
17345;SDS011;8790;53.590;10.002;2022-11-15T02:42:37;25.10;;;16.83;;
17345;SDS011;8790;53.590;10.002;2022-11-15T02:45:56;28.73;;;16.77;;
17345;SDS011;8790;53.590;10.002;2022-11-15T02:48:51;26.60;;;17.67;;
17345;SDS011;8790;53.590;10.002;2022-11-15T02:51:42;25.20;;;16.57;;
17345;SDS011;8790;53.590;10.002;2022-11-15T02:54:34;26.40;;;17.73;;
17345;SDS011;8790;53.590;10.002;2022-11-15T02:57:28;26.70;;;17.60;;
17345;SDS011;8790;53.590;10.002;2022-11-15T03:00:27;27.37;;;16.30;;
17345;SDS011;8790;53.590;10.002;2022-11-15T03:03:46;27.27;;;16.63;;
17345;SDS011;8790;53.590;10.002;2022-11-15T03:06:47;27.77;;;17.17;;
17345;SDS011;8790;53.590;10.002;2022-11-15T03:09:44;24.93;;;16.17;;
17345;SDS011;8790;53.590;10.002;2022-11-15T03:12:41;23.73;;;16.30;;
17345;SDS011;8790;53.590;10.002;2022-11-15T03:15:37;24.17;;;16.40;;
17345;SDS011;8790;53.590;10.002;2022-11-15T03:18:32;26.93;;;16.70;;
17345;SDS011;8790;53.590;10.002;2022-11-15T03:21:25;23.87;;;15.80;;
17345;SDS011;8790;53.590;10.002;2022-11-15T03:24:19;23.63;;;16.70;;
17345;SDS011;8790;53.590;10.002;2022-11-15T03:27:12;23.37;;;16.00;;
17345;SDS011;8790;53.590;10.002;2022-11-15T03:30:05;24.07;;;15.77;;
17345;SDS011;8790;53.590;10.002;2022-11-15T03:32:58;24.73;;;16.13;;
17345;SDS011;8790;53.590;10.002;2022-11-15T03:35:49;22.93;;;16.07;;
17345;SDS011;8790;53.590;10.002;2022-11-15T03:38:43;24.13;;;15.33;;
17345;SDS011;8790;53.590;10.002;2022-11-15T03:41:35;25.90;;;15.87;;
17345;SDS011;8790;53.590;10.002;2022-11-15T03:44:34;23.10;;;15.47;;
17345;SDS011;8790;53.590;10.002;2022-11-15T03:47:31;22.73;;;14.83;;
17345;SDS011;8790;53.590;10.002;2022-11-15T03:50:24;22.30;;;14.97;;
17345;SDS011;8790;53.590;10.002;2022-11-15T03:53:16;22.27;;;14.60;;
17345;SDS011;8790;53.590;10.002;2022-11-15T03:56:07;22.07;;;15.00;;
17345;SDS011;8790;53.590;10.002;2022-11-15T03:58:58;21.73;;;14.90;;
17345;SDS011;8790;53.590;10.002;2022-11-15T04:01:48;21.20;;;14.80;;
17345;SDS011;8790;53.590;10.002;2022-11-15T04:04:39;20.43;;;14.13;;
17345;SDS011;8790;53.590;10.002;2022-11-15T04:07:29;20.83;;;13.90;;
17345;SDS011;8790;53.590;10.002;2022-11-15T04:10:20;20.57;;;13.97;;
17345;SDS011;8790;53.590;10.002;2022-11-15T04:13:12;23.13;;;14.80;;
17345;SDS011;8790;53.590;10.002;2022-11-15T04:16:02;22.27;;;15.10;;
17345;SDS011;8790;53.590;10.002;2022-11-15T04:18:53;20.10;;;14.03;;
17345;SDS011;8790;53.590;10.002;2022-11-15T04:21:57;21.63;;;14.60;;
17345;SDS011;8790;53.590;10.002;2022-11-15T04:25:05;23.33;;;14.43;;
17345;SDS011;8790;53.590;10.002;2022-11-15T04:27:55;21.03;;;14.50;;
17345;SDS011;8790;53.590;10.002;2022-11-15T04:30:47;20.97;;;14.20;;
17345;SDS011;8790;53.590;10.002;2022-11-15T04:33:38;21.30;;;13.90;;
17345;SDS011;8790;53.590;10.002;2022-11-15T04:36:28;21.23;;;14.53;;
17345;SDS011;8790;53.590;10.002;2022-11-15T04:39:36;21.93;;;14.53;;
17345;SDS011;8790;53.590;10.002;2022-11-15T04:42:27;21.93;;;15.07;;
17345;SDS011;8790;53.590;10.002;2022-11-15T04:45:17;20.33;;;14.33;;
17345;SDS011;8790;53.590;10.002;2022-11-15T04:48:09;22.10;;;14.33;;
17345;SDS011;8790;53.590;10.002;2022-11-15T04:51:00;21.27;;;14.83;;
17345;SDS011;8790;53.590;10.002;2022-11-15T04:53:50;21.20;;;14.23;;
17345;SDS011;8790;53.590;10.002;2022-11-15T04:56:41;21.67;;;14.10;;
17345;SDS011;8790;53.590;10.002;2022-11-15T04:59:31;22.40;;;14.23;;
17345;SDS011;8790;53.590;10.002;2022-11-15T05:02:21;21.50;;;13.77;;
17345;SDS011;8790;53.590;10.002;2022-11-15T05:05:13;21.40;;;14.47;;
17345;SDS011;8790;53.590;10.002;2022-11-15T05:08:03;21.87;;;14.50;;
17345;SDS011;8790;53.590;10.002;2022-11-15T05:10:53;20.23;;;14.23;;
17345;SDS011;8790;53.590;10.002;2022-11-15T05:13:44;20.70;;;14.17;;
17345;SDS011;8790;53.590;10.002;2022-11-15T05:16:34;19.80;;;13.90;;
17345;SDS011;8790;53.590;10.002;2022-11-15T05:19:25;18.73;;;13.30;;
17345;SDS011;8790;53.590;10.002;2022-11-15T05:22:17;20.47;;;13.47;;
17345;SDS011;8790;53.590;10.002;2022-11-15T05:25:08;21.17;;;14.00;;
17345;SDS011;8790;53.590;10.002;2022-11-15T05:27:58;18.97;;;13.70;;
17345;SDS011;8790;53.590;10.002;2022-11-15T05:30:49;21.07;;;14.07;;
17345;SDS011;8790;53.590;10.002;2022-11-15T05:33:39;19.77;;;13.60;;
17345;SDS011;8790;53.590;10.002;2022-11-15T05:36:31;21.90;;;13.27;;
17345;SDS011;8790;53.590;10.002;2022-11-15T05:39:26;20.27;;;13.03;;
17345;SDS011;8790;53.590;10.002;2022-11-15T05:42:16;22.33;;;13.30;;
17345;SDS011;8790;53.590;10.002;2022-11-15T05:45:07;21.33;;;13.63;;
17345;SDS011;8790;53.590;10.002;2022-11-15T05:47:59;18.97;;;13.60;;
17345;SDS011;8790;53.590;10.002;2022-11-15T05:50:53;21.17;;;14.07;;
17345;SDS011;8790;53.590;10.002;2022-11-15T05:53:45;19.53;;;13.10;;
17345;SDS011;8790;53.590;10.002;2022-11-15T05:56:37;20.13;;;13.63;;
17345;SDS011;8790;53.590;10.002;2022-11-15T05:59:28;18.53;;;13.13;;
17345;SDS011;8790;53.590;10.002;2022-11-15T06:02:19;18.77;;;13.20;;
17345;SDS011;8790;53.590;10.002;2022-11-15T06:05:10;18.77;;;13.10;;
17345;SDS011;8790;53.590;10.002;2022-11-15T06:08:00;19.20;;;13.53;;
17345;SDS011;8790;53.590;10.002;2022-11-15T06:10:50;18.73;;;12.97;;
17345;SDS011;8790;53.590;10.002;2022-11-15T06:13:42;21.20;;;13.23;;
17345;SDS011;8790;53.590;10.002;2022-11-15T06:16:33;18.67;;;13.60;;
17345;SDS011;8790;53.590;10.002;2022-11-15T06:19:23;19.27;;;13.70;;
17345;SDS011;8790;53.590;10.002;2022-11-15T06:22:14;17.87;;;13.57;;
17345;SDS011;8790;53.590;10.002;2022-11-15T06:25:04;18.70;;;13.53;;
17345;SDS011;8790;53.590;10.002;2022-11-15T06:27:56;18.60;;;13.30;;
17345;SDS011;8790;53.590;10.002;2022-11-15T06:30:48;18.53;;;12.67;;
17345;SDS011;8790;53.590;10.002;2022-11-15T06:33:39;19.20;;;12.97;;
17345;SDS011;8790;53.590;10.002;2022-11-15T06:36:29;20.50;;;13.27;;
17345;SDS011;8790;53.590;10.002;2022-11-15T06:39:20;19.77;;;12.57;;
17345;SDS011;8790;53.590;10.002;2022-11-15T06:42:10;17.43;;;12.97;;
17345;SDS011;8790;53.590;10.002;2022-11-15T06:45:01;18.33;;;13.03;;
17345;SDS011;8790;53.590;10.002;2022-11-15T06:47:53;20.20;;;13.20;;
17345;SDS011;8790;53.590;10.002;2022-11-15T06:50:49;19.97;;;13.23;;
17345;SDS011;8790;53.590;10.002;2022-11-15T06:53:40;20.63;;;13.00;;
17345;SDS011;8790;53.590;10.002;2022-11-15T06:56:30;18.70;;;12.93;;
17345;SDS011;8790;53.590;10.002;2022-11-15T06:59:20;22.53;;;13.27;;
17345;SDS011;8790;53.590;10.002;2022-11-15T07:02:11;19.77;;;13.80;;
17345;SDS011;8790;53.590;10.002;2022-11-15T07:05:03;20.50;;;13.50;;
17345;SDS011;8790;53.590;10.002;2022-11-15T07:07:55;23.33;;;13.77;;
17345;SDS011;8790;53.590;10.002;2022-11-15T07:10:47;18.90;;;12.57;;
17345;SDS011;8790;53.590;10.002;2022-11-15T07:13:37;20.73;;;13.03;;
17345;SDS011;8790;53.590;10.002;2022-11-15T07:16:27;20.63;;;14.23;;
17345;SDS011;8790;53.590;10.002;2022-11-15T07:19:18;20.37;;;13.67;;
17345;SDS011;8790;53.590;10.002;2022-11-15T07:22:10;25.10;;;13.73;;
17345;SDS011;8790;53.590;10.002;2022-11-15T07:25:00;20.83;;;13.33;;
17345;SDS011;8790;53.590;10.002;2022-11-15T07:27:53;19.97;;;13.53;;
17345;SDS011;8790;53.590;10.002;2022-11-15T07:30:45;21.87;;;14.20;;
17345;SDS011;8790;53.590;10.002;2022-11-15T07:33:35;19.07;;;13.63;;
17345;SDS011;8790;53.590;10.002;2022-11-15T07:36:25;19.83;;;13.90;;
17345;SDS011;8790;53.590;10.002;2022-11-15T07:39:17;19.07;;;13.20;;
17345;SDS011;8790;53.590;10.002;2022-11-15T07:42:08;21.83;;;13.83;;
17345;SDS011;8790;53.590;10.002;2022-11-15T07:45:16;19.63;;;13.03;;
17345;SDS011;8790;53.590;10.002;2022-11-15T07:48:07;17.90;;;12.77;;
17345;SDS011;8790;53.590;10.002;2022-11-15T07:50:57;21.40;;;13.90;;
17345;SDS011;8790;53.590;10.002;2022-11-15T07:53:48;19.53;;;13.37;;
17345;SDS011;8790;53.590;10.002;2022-11-15T07:56:40;18.47;;;13.00;;
17345;SDS011;8790;53.590;10.002;2022-11-15T07:59:30;20.67;;;13.00;;
17345;SDS011;8790;53.590;10.002;2022-11-15T08:02:21;18.00;;;12.77;;
17345;SDS011;8790;53.590;10.002;2022-11-15T08:05:11;22.67;;;13.33;;
17345;SDS011;8790;53.590;10.002;2022-11-15T08:08:02;20.53;;;13.47;;
17345;SDS011;8790;53.590;10.002;2022-11-15T08:10:53;19.20;;;13.23;;
17345;SDS011;8790;53.590;10.002;2022-11-15T08:13:44;22.80;;;13.57;;
17345;SDS011;8790;53.590;10.002;2022-11-15T08:16:34;21.40;;;13.60;;
17345;SDS011;8790;53.590;10.002;2022-11-15T08:19:25;20.30;;;13.80;;
17345;SDS011;8790;53.590;10.002;2022-11-15T08:22:16;20.13;;;13.47;;
17345;SDS011;8790;53.590;10.002;2022-11-15T08:25:06;17.30;;;12.77;;
17345;SDS011;8790;53.590;10.002;2022-11-15T08:27:57;19.83;;;12.80;;
17345;SDS011;8790;53.590;10.002;2022-11-15T08:30:50;17.67;;;12.27;;
17345;SDS011;8790;53.590;10.002;2022-11-15T08:33:41;17.57;;;13.00;;
17345;SDS011;8790;53.590;10.002;2022-11-15T08:36:31;20.17;;;12.77;;
17345;SDS011;8790;53.590;10.002;2022-11-15T08:39:21;19.57;;;13.03;;
17345;SDS011;8790;53.590;10.002;2022-11-15T08:42:12;19.07;;;12.67;;
17345;SDS011;8790;53.590;10.002;2022-11-15T08:45:03;18.77;;;13.53;;
17345;SDS011;8790;53.590;10.002;2022-11-15T08:47:56;19.33;;;13.03;;
17345;SDS011;8790;53.590;10.002;2022-11-15T08:50:46;18.57;;;13.20;;
17345;SDS011;8790;53.590;10.002;2022-11-15T08:53:36;20.90;;;14.20;;
17345;SDS011;8790;53.590;10.002;2022-11-15T08:56:27;20.30;;;14.27;;
17345;SDS011;8790;53.590;10.002;2022-11-15T08:59:17;18.13;;;12.90;;
17345;SDS011;8790;53.590;10.002;2022-11-15T09:02:10;21.63;;;13.13;;
17345;SDS011;8790;53.590;10.002;2022-11-15T09:05:03;19.57;;;12.87;;
17345;SDS011;8790;53.590;10.002;2022-11-15T09:07:54;20.10;;;14.23;;
17345;SDS011;8790;53.590;10.002;2022-11-15T09:10:44;17.37;;;13.37;;
17345;SDS011;8790;53.590;10.002;2022-11-15T09:13:35;19.87;;;13.93;;
17345;SDS011;8790;53.590;10.002;2022-11-15T09:16:26;17.60;;;12.93;;
17345;SDS011;8790;53.590;10.002;2022-11-15T09:19:17;21.40;;;14.20;;
17345;SDS011;8790;53.590;10.002;2022-11-15T09:22:09;19.20;;;13.93;;
17345;SDS011;8790;53.590;10.002;2022-11-15T09:24:59;21.13;;;14.33;;
17345;SDS011;8790;53.590;10.002;2022-11-15T09:27:50;23.37;;;15.23;;
17345;SDS011;8790;53.590;10.002;2022-11-15T09:30:40;19.63;;;13.97;;
17345;SDS011;8790;53.590;10.002;2022-11-15T09:33:31;19.30;;;13.67;;
17345;SDS011;8790;53.590;10.002;2022-11-15T09:36:21;21.00;;;13.40;;
17345;SDS011;8790;53.590;10.002;2022-11-15T09:39:13;19.33;;;13.63;;
17345;SDS011;8790;53.590;10.002;2022-11-15T09:42:16;20.33;;;13.90;;
17345;SDS011;8790;53.590;10.002;2022-11-15T09:45:17;19.73;;;13.80;;
17345;SDS011;8790;53.590;10.002;2022-11-15T09:48:20;20.53;;;13.60;;
17345;SDS011;8790;53.590;10.002;2022-11-15T09:51:37;21.63;;;14.10;;
17345;SDS011;8790;53.590;10.002;2022-11-15T09:54:20;20.30;;;13.83;;
17345;SDS011;8790;53.590;10.002;2022-11-15T09:57:04;18.30;;;12.63;;
17345;SDS011;8790;53.590;10.002;2022-11-15T09:59:46;19.13;;;13.17;;
17345;SDS011;8790;53.590;10.002;2022-11-15T10:02:33;18.40;;;13.50;;
17345;SDS011;8790;53.590;10.002;2022-11-15T10:05:15;20.77;;;13.27;;
17345;SDS011;8790;53.590;10.002;2022-11-15T10:07:50;18.00;;;13.60;;
17345;SDS011;8790;53.590;10.002;2022-11-15T10:10:29;18.93;;;13.43;;
17345;SDS011;8790;53.590;10.002;2022-11-15T10:13:07;21.80;;;14.13;;
17345;SDS011;8790;53.590;10.002;2022-11-15T10:15:47;20.67;;;13.20;;
17345;SDS011;8790;53.590;10.002;2022-11-15T10:18:19;17.40;;;12.37;;
17345;SDS011;8790;53.590;10.002;2022-11-15T10:21:02;18.50;;;12.90;;
17345;SDS011;8790;53.590;10.002;2022-11-15T10:23:44;19.37;;;13.23;;
17345;SDS011;8790;53.590;10.002;2022-11-15T10:26:17;19.93;;;13.80;;
17345;SDS011;8790;53.590;10.002;2022-11-15T10:28:48;17.87;;;12.50;;
17345;SDS011;8790;53.590;10.002;2022-11-15T10:31:21;17.97;;;12.73;;
17345;SDS011;8790;53.590;10.002;2022-11-15T10:33:57;17.40;;;12.60;;
17345;SDS011;8790;53.590;10.002;2022-11-15T10:36:43;18.23;;;12.77;;
17345;SDS011;8790;53.590;10.002;2022-11-15T10:39:15;20.00;;;12.63;;
17345;SDS011;8790;53.590;10.002;2022-11-15T10:41:48;17.40;;;12.47;;
17345;SDS011;8790;53.590;10.002;2022-11-15T10:44:22;18.50;;;13.17;;
17345;SDS011;8790;53.590;10.002;2022-11-15T10:47:05;17.77;;;12.53;;
17345;SDS011;8790;53.590;10.002;2022-11-15T10:49:53;16.50;;;12.10;;
17345;SDS011;8790;53.590;10.002;2022-11-15T10:52:27;16.63;;;11.43;;
17345;SDS011;8790;53.590;10.002;2022-11-15T10:55:03;16.60;;;11.87;;
17345;SDS011;8790;53.590;10.002;2022-11-15T10:57:53;14.07;;;10.50;;
17345;SDS011;8790;53.590;10.002;2022-11-15T11:00:27;13.07;;;10.60;;
17345;SDS011;8790;53.590;10.002;2022-11-15T11:03:22;14.57;;;11.10;;
17345;SDS011;8790;53.590;10.002;2022-11-15T11:06:06;14.10;;;10.43;;
17345;SDS011;8790;53.590;10.002;2022-11-15T11:08:42;15.93;;;9.93;;
17345;SDS011;8790;53.590;10.002;2022-11-15T11:11:43;16.90;;;10.87;;
17345;SDS011;8790;53.590;10.002;2022-11-15T11:14:19;15.00;;;10.30;;
17345;SDS011;8790;53.590;10.002;2022-11-15T11:16:54;14.73;;;10.67;;
17345;SDS011;8790;53.590;10.002;2022-11-15T11:19:31;14.20;;;9.67;;
17345;SDS011;8790;53.590;10.002;2022-11-15T11:22:12;13.67;;;10.00;;
17345;SDS011;8790;53.590;10.002;2022-11-15T11:24:55;15.67;;;10.63;;
17345;SDS011;8790;53.590;10.002;2022-11-15T11:27:36;13.60;;;10.47;;
17345;SDS011;8790;53.590;10.002;2022-11-15T11:30:17;13.73;;;9.90;;
17345;SDS011;8790;53.590;10.002;2022-11-15T11:33:01;16.23;;;10.47;;
17345;SDS011;8790;53.590;10.002;2022-11-15T11:35:40;15.70;;;10.50;;
17345;SDS011;8790;53.590;10.002;2022-11-15T11:38:30;14.53;;;10.50;;
17345;SDS011;8790;53.590;10.002;2022-11-15T11:41:10;13.63;;;10.43;;
17345;SDS011;8790;53.590;10.002;2022-11-15T11:43:52;13.73;;;10.50;;
17345;SDS011;8790;53.590;10.002;2022-11-15T11:46:37;14.60;;;10.40;;
17345;SDS011;8790;53.590;10.002;2022-11-15T11:49:21;15.60;;;9.97;;
17345;SDS011;8790;53.590;10.002;2022-11-15T11:52:00;15.33;;;10.47;;
17345;SDS011;8790;53.590;10.002;2022-11-15T11:54:38;17.27;;;10.17;;
17345;SDS011;8790;53.590;10.002;2022-11-15T11:57:18;14.37;;;9.80;;
17345;SDS011;8790;53.590;10.002;2022-11-15T11:59:58;13.73;;;10.43;;
17345;SDS011;8790;53.590;10.002;2022-11-15T12:02:44;14.53;;;10.60;;
17345;SDS011;8790;53.590;10.002;2022-11-15T12:05:22;14.63;;;10.03;;
17345;SDS011;8790;53.590;10.002;2022-11-15T12:08:01;15.70;;;10.00;;
17345;SDS011;8790;53.590;10.002;2022-11-15T12:10:39;13.57;;;9.80;;
17345;SDS011;8790;53.590;10.002;2022-11-15T12:13:15;13.37;;;9.50;;
17345;SDS011;8790;53.590;10.002;2022-11-15T12:15:51;15.57;;;10.53;;
17345;SDS011;8790;53.590;10.002;2022-11-15T12:18:35;12.77;;;9.77;;
17345;SDS011;8790;53.590;10.002;2022-11-15T12:21:13;14.33;;;10.33;;
17345;SDS011;8790;53.590;10.002;2022-11-15T12:23:48;13.70;;;10.13;;
17345;SDS011;8790;53.590;10.002;2022-11-15T12:26:25;13.17;;;10.20;;
17345;SDS011;8790;53.590;10.002;2022-11-15T12:29:01;14.07;;;9.83;;
17345;SDS011;8790;53.590;10.002;2022-11-15T12:31:39;13.97;;;9.70;;
17345;SDS011;8790;53.590;10.002;2022-11-15T12:34:22;12.27;;;9.40;;
17345;SDS011;8790;53.590;10.002;2022-11-15T12:40:15;13.70;;;9.50;;
17345;SDS011;8790;53.590;10.002;2022-11-15T12:42:58;13.37;;;9.50;;
17345;SDS011;8790;53.590;10.002;2022-11-15T12:46:04;13.23;;;9.13;;
17345;SDS011;8790;53.590;10.002;2022-11-15T12:48:47;15.17;;;9.83;;
17345;SDS011;8790;53.590;10.002;2022-11-15T12:54:51;13.17;;;9.27;;
17345;SDS011;8790;53.590;10.002;2022-11-15T12:57:41;12.83;;;9.43;;
17345;SDS011;8790;53.590;10.002;2022-11-15T13:03:26;12.77;;;9.63;;
17345;SDS011;8790;53.590;10.002;2022-11-15T13:06:04;13.57;;;9.57;;
17345;SDS011;8790;53.590;10.002;2022-11-15T13:08:42;14.23;;;9.43;;
17345;SDS011;8790;53.590;10.002;2022-11-15T13:17:30;14.87;;;8.90;;
17345;SDS011;8790;53.590;10.002;2022-11-15T13:20:14;12.20;;;9.10;;
17345;SDS011;8790;53.590;10.002;2022-11-15T13:23:00;10.57;;;8.57;;
17345;SDS011;8790;53.590;10.002;2022-11-15T13:28:43;12.43;;;9.53;;
17345;SDS011;8790;53.590;10.002;2022-11-15T13:31:23;14.33;;;9.57;;
17345;SDS011;8790;53.590;10.002;2022-11-15T13:33:59;12.63;;;9.87;;
17345;SDS011;8790;53.590;10.002;2022-11-15T13:36:33;11.23;;;9.17;;
17345;SDS011;8790;53.590;10.002;2022-11-15T13:39:05;13.00;;;9.73;;
17345;SDS011;8790;53.590;10.002;2022-11-15T13:41:45;11.73;;;9.10;;
17345;SDS011;8790;53.590;10.002;2022-11-15T13:44:21;14.23;;;9.80;;
17345;SDS011;8790;53.590;10.002;2022-11-15T13:47:01;12.40;;;9.33;;
17345;SDS011;8790;53.590;10.002;2022-11-15T13:49:35;12.57;;;10.17;;
17345;SDS011;8790;53.590;10.002;2022-11-15T13:52:09;13.07;;;9.40;;
17345;SDS011;8790;53.590;10.002;2022-11-15T13:54:45;11.97;;;9.07;;
17345;SDS011;8790;53.590;10.002;2022-11-15T13:57:22;17.03;;;10.17;;
17345;SDS011;8790;53.590;10.002;2022-11-15T13:59:57;12.03;;;8.53;;
17345;SDS011;8790;53.590;10.002;2022-11-15T14:02:42;12.23;;;8.70;;
17345;SDS011;8790;53.590;10.002;2022-11-15T14:05:14;12.30;;;8.70;;
17345;SDS011;8790;53.590;10.002;2022-11-15T14:07:52;13.33;;;8.83;;
17345;SDS011;8790;53.590;10.002;2022-11-15T14:10:26;13.20;;;8.93;;
17345;SDS011;8790;53.590;10.002;2022-11-15T14:13:00;13.63;;;8.97;;
17345;SDS011;8790;53.590;10.002;2022-11-15T14:15:34;12.17;;;9.00;;
17345;SDS011;8790;53.590;10.002;2022-11-15T14:18:42;11.13;;;9.20;;
17345;SDS011;8790;53.590;10.002;2022-11-15T14:21:16;11.93;;;8.83;;
17345;SDS011;8790;53.590;10.002;2022-11-15T14:23:48;12.40;;;8.90;;
17345;SDS011;8790;53.590;10.002;2022-11-15T14:26:27;11.50;;;8.90;;
17345;SDS011;8790;53.590;10.002;2022-11-15T14:32:05;11.67;;;8.93;;
17345;SDS011;8790;53.590;10.002;2022-11-15T14:34:43;15.50;;;11.43;;
17345;SDS011;8790;53.590;10.002;2022-11-15T14:37:19;13.43;;;9.80;;
17345;SDS011;8790;53.590;10.002;2022-11-15T14:39:53;13.07;;;9.10;;
17345;SDS011;8790;53.590;10.002;2022-11-15T14:42:25;13.73;;;9.13;;
17345;SDS011;8790;53.590;10.002;2022-11-15T14:44:57;13.93;;;9.70;;
17345;SDS011;8790;53.590;10.002;2022-11-15T14:47:30;13.97;;;9.50;;
17345;SDS011;8790;53.590;10.002;2022-11-15T14:50:02;10.90;;;8.87;;
17345;SDS011;8790;53.590;10.002;2022-11-15T14:52:34;11.83;;;8.83;;
17345;SDS011;8790;53.590;10.002;2022-11-15T14:55:11;14.03;;;8.80;;
17345;SDS011;8790;53.590;10.002;2022-11-15T14:57:49;13.93;;;8.50;;
17345;SDS011;8790;53.590;10.002;2022-11-15T15:00:22;12.03;;;9.53;;
17345;SDS011;8790;53.590;10.002;2022-11-15T15:02:55;11.80;;;9.47;;
17345;SDS011;8790;53.590;10.002;2022-11-15T15:05:29;11.83;;;8.80;;
17345;SDS011;8790;53.590;10.002;2022-11-15T15:08:03;10.77;;;8.77;;
17345;SDS011;8790;53.590;10.002;2022-11-15T15:10:36;11.80;;;8.37;;
17345;SDS011;8790;53.590;10.002;2022-11-15T15:13:12;13.47;;;9.70;;
17345;SDS011;8790;53.590;10.002;2022-11-15T15:15:48;12.00;;;8.93;;
17345;SDS011;8790;53.590;10.002;2022-11-15T15:18:22;12.33;;;9.07;;
17345;SDS011;8790;53.590;10.002;2022-11-15T15:20:54;13.83;;;9.43;;
17345;SDS011;8790;53.590;10.002;2022-11-15T15:23:29;12.83;;;9.07;;
17345;SDS011;8790;53.590;10.002;2022-11-15T15:26:01;13.37;;;9.13;;
17345;SDS011;8790;53.590;10.002;2022-11-15T15:28:33;11.33;;;8.60;;
17345;SDS011;8790;53.590;10.002;2022-11-15T15:31:05;10.77;;;8.53;;
17345;SDS011;8790;53.590;10.002;2022-11-15T15:33:38;11.73;;;8.70;;
17345;SDS011;8790;53.590;10.002;2022-11-15T15:36:11;13.50;;;9.47;;
17345;SDS011;8790;53.590;10.002;2022-11-15T15:38:43;13.67;;;9.10;;
17345;SDS011;8790;53.590;10.002;2022-11-15T15:41:16;13.23;;;9.27;;
17345;SDS011;8790;53.590;10.002;2022-11-15T15:43:48;12.03;;;8.97;;
17345;SDS011;8790;53.590;10.002;2022-11-15T15:46:20;10.00;;;8.83;;
17345;SDS011;8790;53.590;10.002;2022-11-15T15:48:53;12.40;;;9.40;;
17345;SDS011;8790;53.590;10.002;2022-11-15T15:51:25;11.57;;;8.50;;
17345;SDS011;8790;53.590;10.002;2022-11-15T15:53:56;11.87;;;8.90;;
17345;SDS011;8790;53.590;10.002;2022-11-15T15:56:28;14.93;;;9.07;;
17345;SDS011;8790;53.590;10.002;2022-11-15T15:59:00;13.47;;;9.07;;
17345;SDS011;8790;53.590;10.002;2022-11-15T16:01:31;13.10;;;9.17;;
17345;SDS011;8790;53.590;10.002;2022-11-15T16:04:04;12.50;;;9.00;;
17345;SDS011;8790;53.590;10.002;2022-11-15T16:06:36;10.73;;;8.80;;
17345;SDS011;8790;53.590;10.002;2022-11-15T16:09:12;11.70;;;8.53;;
17345;SDS011;8790;53.590;10.002;2022-11-15T16:11:45;15.97;;;9.50;;
17345;SDS011;8790;53.590;10.002;2022-11-15T16:14:17;13.20;;;9.37;;
17345;SDS011;8790;53.590;10.002;2022-11-15T16:16:49;11.57;;;9.03;;
17345;SDS011;8790;53.590;10.002;2022-11-15T16:19:22;12.03;;;8.80;;
17345;SDS011;8790;53.590;10.002;2022-11-15T16:21:54;13.23;;;9.33;;
17345;SDS011;8790;53.590;10.002;2022-11-15T16:24:26;10.50;;;9.00;;
17345;SDS011;8790;53.590;10.002;2022-11-15T16:26:57;12.13;;;8.77;;
17345;SDS011;8790;53.590;10.002;2022-11-15T16:29:29;10.83;;;9.00;;
17345;SDS011;8790;53.590;10.002;2022-11-15T16:32:01;13.30;;;9.40;;
17345;SDS011;8790;53.590;10.002;2022-11-15T16:34:34;14.17;;;9.60;;
17345;SDS011;8790;53.590;10.002;2022-11-15T16:37:08;12.23;;;9.47;;
17345;SDS011;8790;53.590;10.002;2022-11-15T16:39:51;13.30;;;9.90;;
17345;SDS011;8790;53.590;10.002;2022-11-15T16:42:23;12.63;;;9.07;;